sensor_id;sensor_type;location;lat;lon;timestamp;P1;durP1;ratioP1;P2;durP2;ratioP2
4597;SDS011;62772;48.646;8.906;2023-08-12T00:03:50;7.47;;;5.53;;
4597;SDS011;62772;48.646;8.906;2023-08-12T00:08:51;14.10;;;5.87;;
4597;SDS011;62772;48.646;8.906;2023-08-12T00:13:51;8.70;;;5.83;;
4597;SDS011;62772;48.646;8.906;2023-08-12T00:18:52;8.53;;;5.70;;
4597;SDS011;62772;48.646;8.906;2023-08-12T00:23:52;10.60;;;5.53;;
4597;SDS011;62772;48.646;8.906;2023-08-12T00:28:53;6.67;;;5.10;;
4597;SDS011;62772;48.646;8.906;2023-08-12T00:33:53;8.27;;;5.60;;
4597;SDS011;62772;48.646;8.906;2023-08-12T00:38:54;8.20;;;5.37;;
4597;SDS011;62772;48.646;8.906;2023-08-12T00:43:54;8.27;;;5.57;;
4597;SDS011;62772;48.646;8.906;2023-08-12T00:48:56;7.17;;;5.10;;
4597;SDS011;62772;48.646;8.906;2023-08-12T00:53:59;7.00;;;4.97;;
4597;SDS011;62772;48.646;8.906;2023-08-12T00:59:00;8.10;;;5.57;;
4597;SDS011;62772;48.646;8.906;2023-08-12T01:04:03;8.07;;;5.70;;
4597;SDS011;62772;48.646;8.906;2023-08-12T01:09:05;10.80;;;6.67;;
4597;SDS011;62772;48.646;8.906;2023-08-12T01:14:42;10.93;;;6.07;;
4597;SDS011;62772;48.646;8.906;2023-08-12T01:19:49;9.87;;;6.30;;
4597;SDS011;62772;48.646;8.906;2023-08-12T01:24:53;8.73;;;5.67;;
4597;SDS011;62772;48.646;8.906;2023-08-12T01:29:53;9.10;;;6.10;;
4597;SDS011;62772;48.646;8.906;2023-08-12T01:40:02;19.03;;;6.67;;
4597;SDS011;62772;48.646;8.906;2023-08-12T01:45:04;10.53;;;6.50;;
4597;SDS011;62772;48.646;8.906;2023-08-12T01:50:05;7.87;;;5.53;;
4597;SDS011;62772;48.646;8.906;2023-08-12T01:55:06;8.03;;;6.20;;
4597;SDS011;62772;48.646;8.906;2023-08-12T02:00:07;9.13;;;6.13;;
4597;SDS011;62772;48.646;8.906;2023-08-12T02:05:17;8.80;;;6.10;;
4597;SDS011;62772;48.646;8.906;2023-08-12T02:10:18;7.97;;;5.93;;
4597;SDS011;62772;48.646;8.906;2023-08-12T02:15:18;11.07;;;6.90;;
4597;SDS011;62772;48.646;8.906;2023-08-12T02:20:18;13.43;;;7.20;;
4597;SDS011;62772;48.646;8.906;2023-08-12T02:25:19;9.90;;;6.83;;
4597;SDS011;62772;48.646;8.906;2023-08-12T02:30:19;9.90;;;6.63;;
4597;SDS011;62772;48.646;8.906;2023-08-12T02:35:20;9.67;;;6.67;;
4597;SDS011;62772;48.646;8.906;2023-08-12T02:40:20;11.37;;;6.73;;
4597;SDS011;62772;48.646;8.906;2023-08-12T02:45:21;12.70;;;7.23;;
4597;SDS011;62772;48.646;8.906;2023-08-12T02:50:21;11.60;;;7.27;;
4597;SDS011;62772;48.646;8.906;2023-08-12T02:55:22;12.07;;;6.53;;
4597;SDS011;62772;48.646;8.906;2023-08-12T03:00:22;14.57;;;7.33;;
4597;SDS011;62772;48.646;8.906;2023-08-12T03:05:23;9.70;;;6.77;;
4597;SDS011;62772;48.646;8.906;2023-08-12T03:10:23;11.57;;;7.60;;
4597;SDS011;62772;48.646;8.906;2023-08-12T03:15:24;12.93;;;7.80;;
4597;SDS011;62772;48.646;8.906;2023-08-12T03:20:26;9.57;;;6.90;;
4597;SDS011;62772;48.646;8.906;2023-08-12T03:25:26;9.00;;;6.87;;
4597;SDS011;62772;48.646;8.906;2023-08-12T03:30:27;9.73;;;6.83;;
4597;SDS011;62772;48.646;8.906;2023-08-12T03:35:28;10.30;;;7.77;;
4597;SDS011;62772;48.646;8.906;2023-08-12T03:40:30;12.23;;;8.00;;
4597;SDS011;62772;48.646;8.906;2023-08-12T03:45:31;11.07;;;8.10;;
4597;SDS011;62772;48.646;8.906;2023-08-12T03:50:33;9.90;;;7.60;;
4597;SDS011;62772;48.646;8.906;2023-08-12T03:55:35;10.97;;;7.70;;
4597;SDS011;62772;48.646;8.906;2023-08-12T04:00:39;13.37;;;8.37;;
4597;SDS011;62772;48.646;8.906;2023-08-12T04:05:51;13.60;;;8.40;;
4597;SDS011;62772;48.646;8.906;2023-08-12T04:10:53;12.90;;;8.13;;
4597;SDS011;62772;48.646;8.906;2023-08-12T04:15:53;13.53;;;8.37;;
4597;SDS011;62772;48.646;8.906;2023-08-12T04:20:54;13.07;;;8.50;;
4597;SDS011;62772;48.646;8.906;2023-08-12T04:25:55;11.87;;;7.90;;
4597;SDS011;62772;48.646;8.906;2023-08-12T04:30:59;12.27;;;7.93;;
4597;SDS011;62772;48.646;8.906;2023-08-12T04:36:00;11.80;;;8.23;;
4597;SDS011;62772;48.646;8.906;2023-08-12T04:41:01;14.07;;;8.60;;
4597;SDS011;62772;48.646;8.906;2023-08-12T04:46:03;12.87;;;8.93;;
4597;SDS011;62772;48.646;8.906;2023-08-12T04:51:03;14.63;;;8.90;;
4597;SDS011;62772;48.646;8.906;2023-08-12T04:56:08;13.43;;;8.93;;
4597;SDS011;62772;48.646;8.906;2023-08-12T05:01:09;12.70;;;8.63;;
4597;SDS011;62772;48.646;8.906;2023-08-12T05:06:10;11.77;;;8.30;;
4597;SDS011;62772;48.646;8.906;2023-08-12T05:11:11;13.60;;;9.17;;
4597;SDS011;62772;48.646;8.906;2023-08-12T05:16:12;12.47;;;8.70;;
4597;SDS011;62772;48.646;8.906;2023-08-12T05:21:12;11.30;;;8.00;;
4597;SDS011;62772;48.646;8.906;2023-08-12T05:26:13;10.17;;;7.53;;
4597;SDS011;62772;48.646;8.906;2023-08-12T05:31:13;11.70;;;8.20;;
4597;SDS011;62772;48.646;8.906;2023-08-12T05:36:14;15.50;;;9.00;;
4597;SDS011;62772;48.646;8.906;2023-08-12T05:41:14;11.30;;;8.10;;
4597;SDS011;62772;48.646;8.906;2023-08-12T05:46:15;13.00;;;8.97;;
4597;SDS011;62772;48.646;8.906;2023-08-12T05:51:15;11.67;;;7.87;;
4597;SDS011;62772;48.646;8.906;2023-08-12T05:56:16;11.87;;;8.00;;
4597;SDS011;62772;48.646;8.906;2023-08-12T06:01:16;11.43;;;8.20;;
4597;SDS011;62772;48.646;8.906;2023-08-12T06:06:18;16.03;;;8.70;;
4597;SDS011;62772;48.646;8.906;2023-08-12T06:11:18;11.60;;;8.20;;
4597;SDS011;62772;48.646;8.906;2023-08-12T06:16:19;10.90;;;7.80;;
4597;SDS011;62772;48.646;8.906;2023-08-12T06:21:20;14.50;;;8.43;;
4597;SDS011;62772;48.646;8.906;2023-08-12T06:26:21;11.90;;;8.00;;
4597;SDS011;62772;48.646;8.906;2023-08-12T06:31:22;12.83;;;8.20;;
4597;SDS011;62772;48.646;8.906;2023-08-12T06:36:22;14.83;;;7.50;;
4597;SDS011;62772;48.646;8.906;2023-08-12T06:41:23;12.70;;;7.97;;
4597;SDS011;62772;48.646;8.906;2023-08-12T06:46:23;12.00;;;8.73;;
4597;SDS011;62772;48.646;8.906;2023-08-12T06:51:24;12.80;;;7.67;;
4597;SDS011;62772;48.646;8.906;2023-08-12T06:56:24;11.37;;;7.87;;
4597;SDS011;62772;48.646;8.906;2023-08-12T07:01:24;11.50;;;7.07;;
4597;SDS011;62772;48.646;8.906;2023-08-12T07:06:25;10.87;;;7.37;;
4597;SDS011;62772;48.646;8.906;2023-08-12T07:11:25;10.07;;;7.13;;
4597;SDS011;62772;48.646;8.906;2023-08-12T07:16:26;10.17;;;6.93;;
4597;SDS011;62772;48.646;8.906;2023-08-12T07:21:26;10.10;;;7.13;;
4597;SDS011;62772;48.646;8.906;2023-08-12T07:26:27;10.53;;;6.63;;
4597;SDS011;62772;48.646;8.906;2023-08-12T07:31:27;18.93;;;7.60;;
4597;SDS011;62772;48.646;8.906;2023-08-12T07:36:28;9.70;;;7.20;;
4597;SDS011;62772;48.646;8.906;2023-08-12T07:41:28;10.17;;;7.30;;
4597;SDS011;62772;48.646;8.906;2023-08-12T07:46:28;11.57;;;7.50;;
4597;SDS011;62772;48.646;8.906;2023-08-12T07:51:30;9.90;;;7.10;;
4597;SDS011;62772;48.646;8.906;2023-08-12T07:56:30;8.50;;;6.70;;
4597;SDS011;62772;48.646;8.906;2023-08-12T08:01:30;13.97;;;7.00;;
4597;SDS011;62772;48.646;8.906;2023-08-12T08:06:31;13.17;;;7.80;;
4597;SDS011;62772;48.646;8.906;2023-08-12T08:11:31;9.60;;;6.90;;
4597;SDS011;62772;48.646;8.906;2023-08-12T08:16:34;10.30;;;7.20;;
4597;SDS011;62772;48.646;8.906;2023-08-12T08:21:35;14.30;;;6.00;;
4597;SDS011;62772;48.646;8.906;2023-08-12T08:26:36;12.37;;;6.90;;
4597;SDS011;62772;48.646;8.906;2023-08-12T08:31:36;8.93;;;6.40;;
4597;SDS011;62772;48.646;8.906;2023-08-12T08:36:37;17.63;;;5.77;;
4597;SDS011;62772;48.646;8.906;2023-08-12T08:41:39;9.80;;;5.63;;
4597;SDS011;62772;48.646;8.906;2023-08-12T08:46:40;8.90;;;6.35;;
4597;SDS011;62772;48.646;8.906;2023-08-12T08:51:41;18.85;;;5.88;;
4597;SDS011;62772;48.646;8.906;2023-08-12T08:56:43;7.00;;;4.90;;
4597;SDS011;62772;48.646;8.906;2023-08-12T09:01:43;7.20;;;4.68;;
4597;SDS011;62772;48.646;8.906;2023-08-12T09:06:46;13.07;;;5.75;;
4597;SDS011;62772;48.646;8.906;2023-08-12T09:11:48;9.32;;;4.88;;
4597;SDS011;62772;48.646;8.906;2023-08-12T09:16:49;8.80;;;5.32;;
4597;SDS011;62772;48.646;8.906;2023-08-12T09:21:53;9.70;;;5.05;;
4597;SDS011;62772;48.646;8.906;2023-08-12T09:26:55;6.65;;;4.75;;
4597;SDS011;62772;48.646;8.906;2023-08-12T09:32:11;10.88;;;5.50;;
4597;SDS011;62772;48.646;8.906;2023-08-12T09:37:13;7.38;;;4.97;;
4597;SDS011;62772;48.646;8.906;2023-08-12T09:42:14;6.60;;;4.40;;
4597;SDS011;62772;48.646;8.906;2023-08-12T09:47:15;6.78;;;4.78;;
4597;SDS011;62772;48.646;8.906;2023-08-12T09:52:16;8.13;;;4.60;;
4597;SDS011;62772;48.646;8.906;2023-08-12T09:57:17;8.88;;;5.43;;
4597;SDS011;62772;48.646;8.906;2023-08-12T10:02:19;6.78;;;4.03;;
4597;SDS011;62772;48.646;8.906;2023-08-12T10:07:20;6.30;;;4.40;;
4597;SDS011;62772;48.646;8.906;2023-08-12T10:12:23;6.25;;;4.00;;
4597;SDS011;62772;48.646;8.906;2023-08-12T10:17:24;5.97;;;4.00;;
4597;SDS011;62772;48.646;8.906;2023-08-12T10:22:25;5.65;;;3.80;;
4597;SDS011;62772;48.646;8.906;2023-08-12T10:27:26;5.45;;;3.72;;
4597;SDS011;62772;48.646;8.906;2023-08-12T10:32:27;7.07;;;4.43;;
4597;SDS011;62772;48.646;8.906;2023-08-12T10:37:31;5.30;;;3.95;;
4597;SDS011;62772;48.646;8.906;2023-08-12T10:42:39;6.40;;;4.10;;
4597;SDS011;62772;48.646;8.906;2023-08-12T10:58:45;6.70;;;3.92;;
4597;SDS011;62772;48.646;8.906;2023-08-12T11:03:47;6.28;;;4.07;;
4597;SDS011;62772;48.646;8.906;2023-08-12T11:08:51;7.85;;;4.22;;
4597;SDS011;62772;48.646;8.906;2023-08-12T11:13:56;6.75;;;4.38;;
4597;SDS011;62772;48.646;8.906;2023-08-12T11:18:57;6.65;;;4.05;;
4597;SDS011;62772;48.646;8.906;2023-08-12T11:23:59;6.75;;;4.57;;
4597;SDS011;62772;48.646;8.906;2023-08-12T11:28:59;8.55;;;3.88;;
4597;SDS011;62772;48.646;8.906;2023-08-12T11:34:00;6.97;;;4.07;;
4597;SDS011;62772;48.646;8.906;2023-08-12T11:39:00;7.00;;;3.95;;
4597;SDS011;62772;48.646;8.906;2023-08-12T11:44:02;10.32;;;4.55;;
4597;SDS011;62772;48.646;8.906;2023-08-12T11:49:04;5.60;;;3.80;;
4597;SDS011;62772;48.646;8.906;2023-08-12T11:54:05;9.20;;;3.75;;
4597;SDS011;62772;48.646;8.906;2023-08-12T11:59:05;6.22;;;3.75;;
4597;SDS011;62772;48.646;8.906;2023-08-12T12:04:06;6.05;;;3.60;;
4597;SDS011;62772;48.646;8.906;2023-08-12T12:09:07;4.57;;;2.97;;
4597;SDS011;62772;48.646;8.906;2023-08-12T12:14:10;5.97;;;3.03;;
4597;SDS011;62772;48.646;8.906;2023-08-12T12:19:21;5.82;;;3.25;;
4597;SDS011;62772;48.646;8.906;2023-08-12T12:24:22;5.57;;;3.17;;
4597;SDS011;62772;48.646;8.906;2023-08-12T12:29:29;5.47;;;2.78;;
4597;SDS011;62772;48.646;8.906;2023-08-12T12:34:30;6.30;;;3.15;;
4597;SDS011;62772;48.646;8.906;2023-08-12T12:39:30;7.75;;;2.70;;
4597;SDS011;62772;48.646;8.906;2023-08-12T12:44:31;5.38;;;2.70;;
4597;SDS011;62772;48.646;8.906;2023-08-12T12:49:31;6.57;;;3.20;;
4597;SDS011;62772;48.646;8.906;2023-08-12T12:54:32;10.60;;;2.80;;
4597;SDS011;62772;48.646;8.906;2023-08-12T12:59:32;6.47;;;2.78;;
4597;SDS011;62772;48.646;8.906;2023-08-12T13:04:33;7.55;;;3.50;;
4597;SDS011;62772;48.646;8.906;2023-08-12T13:09:33;6.35;;;3.90;;
4597;SDS011;62772;48.646;8.906;2023-08-12T13:14:34;7.85;;;4.22;;
4597;SDS011;62772;48.646;8.906;2023-08-12T13:19:34;7.22;;;3.92;;
4597;SDS011;62772;48.646;8.906;2023-08-12T13:24:34;8.63;;;4.18;;
4597;SDS011;62772;48.646;8.906;2023-08-12T13:29:35;7.10;;;3.75;;
4597;SDS011;62772;48.646;8.906;2023-08-12T13:34:35;4.88;;;3.60;;
4597;SDS011;62772;48.646;8.906;2023-08-12T13:39:36;7.85;;;3.35;;
4597;SDS011;62772;48.646;8.906;2023-08-12T13:44:36;5.43;;;3.17;;
4597;SDS011;62772;48.646;8.906;2023-08-12T13:49:37;6.43;;;3.38;;
4597;SDS011;62772;48.646;8.906;2023-08-12T13:54:37;11.43;;;3.50;;
4597;SDS011;62772;48.646;8.906;2023-08-12T13:59:38;7.57;;;3.65;;
4597;SDS011;62772;48.646;8.906;2023-08-12T14:04:40;6.18;;;2.75;;
4597;SDS011;62772;48.646;8.906;2023-08-12T14:09:41;4.75;;;3.08;;
4597;SDS011;62772;48.646;8.906;2023-08-12T14:14:42;5.20;;;3.00;;
4597;SDS011;62772;48.646;8.906;2023-08-12T14:19:43;5.15;;;3.53;;
4597;SDS011;62772;48.646;8.906;2023-08-12T14:24:44;4.72;;;2.97;;
4597;SDS011;62772;48.646;8.906;2023-08-12T14:29:45;7.03;;;3.08;;
4597;SDS011;62772;48.646;8.906;2023-08-12T14:34:46;5.63;;;3.40;;
4597;SDS011;62772;48.646;8.906;2023-08-12T14:39:46;39.33;;;11.00;;
4597;SDS011;62772;48.646;8.906;2023-08-12T14:44:47;5.38;;;2.97;;
4597;SDS011;62772;48.646;8.906;2023-08-12T14:49:47;4.25;;;2.97;;
4597;SDS011;62772;48.646;8.906;2023-08-12T14:54:50;6.65;;;3.25;;
4597;SDS011;62772;48.646;8.906;2023-08-12T14:59:50;3.85;;;3.05;;
4597;SDS011;62772;48.646;8.906;2023-08-12T15:04:51;4.93;;;2.97;;
4597;SDS011;62772;48.646;8.906;2023-08-12T15:09:52;4.55;;;3.10;;
4597;SDS011;62772;48.646;8.906;2023-08-12T15:14:55;5.25;;;3.50;;
4597;SDS011;62772;48.646;8.906;2023-08-12T15:19:55;7.80;;;3.92;;
4597;SDS011;62772;48.646;8.906;2023-08-12T15:24:56;5.70;;;3.40;;
4597;SDS011;62772;48.646;8.906;2023-08-12T15:29:56;7.80;;;3.22;;
4597;SDS011;62772;48.646;8.906;2023-08-12T15:34:57;4.22;;;2.90;;
4597;SDS011;62772;48.646;8.906;2023-08-12T15:39:57;5.85;;;3.38;;
4597;SDS011;62772;48.646;8.906;2023-08-12T15:44:58;7.90;;;3.65;;
4597;SDS011;62772;48.646;8.906;2023-08-12T15:49:59;6.10;;;3.20;;
4597;SDS011;62772;48.646;8.906;2023-08-12T15:54:59;5.78;;;3.60;;
4597;SDS011;62772;48.646;8.906;2023-08-12T15:59:59;6.25;;;3.60;;
4597;SDS011;62772;48.646;8.906;2023-08-12T16:05:00;9.63;;;3.40;;
4597;SDS011;62772;48.646;8.906;2023-08-12T16:10:00;6.63;;;4.18;;
4597;SDS011;62772;48.646;8.906;2023-08-12T16:15:01;9.35;;;5.03;;
4597;SDS011;62772;48.646;8.906;2023-08-12T16:20:02;9.35;;;4.97;;
4597;SDS011;62772;48.646;8.906;2023-08-12T16:25:04;9.20;;;5.25;;
4597;SDS011;62772;48.646;8.906;2023-08-12T16:30:05;10.43;;;5.78;;
4597;SDS011;62772;48.646;8.906;2023-08-12T16:35:06;9.32;;;5.53;;
4597;SDS011;62772;48.646;8.906;2023-08-12T16:40:07;12.13;;;7.07;;
4597;SDS011;62772;48.646;8.906;2023-08-12T16:45:09;10.82;;;6.72;;
4597;SDS011;62772;48.646;8.906;2023-08-12T16:50:10;9.65;;;6.55;;
4597;SDS011;62772;48.646;8.906;2023-08-12T16:55:10;10.95;;;5.70;;
4597;SDS011;62772;48.646;8.906;2023-08-12T17:00:11;8.40;;;5.10;;
4597;SDS011;62772;48.646;8.906;2023-08-12T17:05:12;7.25;;;5.15;;
4597;SDS011;62772;48.646;8.906;2023-08-12T17:10:12;7.47;;;4.35;;
4597;SDS011;62772;48.646;8.906;2023-08-12T17:15:13;9.55;;;5.28;;
4597;SDS011;62772;48.646;8.906;2023-08-12T17:20:13;10.43;;;5.40;;
4597;SDS011;62772;48.646;8.906;2023-08-12T17:25:14;5.78;;;4.18;;
4597;SDS011;62772;48.646;8.906;2023-08-12T17:30:14;5.85;;;3.90;;
4597;SDS011;62772;48.646;8.906;2023-08-12T17:35:17;7.35;;;4.68;;
4597;SDS011;62772;48.646;8.906;2023-08-12T17:40:18;7.65;;;4.30;;
4597;SDS011;62772;48.646;8.906;2023-08-12T17:45:22;7.78;;;4.50;;
4597;SDS011;62772;48.646;8.906;2023-08-12T17:50:23;6.78;;;4.07;;
4597;SDS011;62772;48.646;8.906;2023-08-12T17:55:24;7.00;;;4.32;;
4597;SDS011;62772;48.646;8.906;2023-08-12T18:00:25;7.53;;;4.15;;
4597;SDS011;62772;48.646;8.906;2023-08-12T18:05:25;6.10;;;4.03;;
4597;SDS011;62772;48.646;8.906;2023-08-12T18:10:26;14.00;;;5.43;;
4597;SDS011;62772;48.646;8.906;2023-08-12T18:15:26;6.03;;;4.13;;
4597;SDS011;62772;48.646;8.906;2023-08-12T18:20:27;5.22;;;3.88;;
4597;SDS011;62772;48.646;8.906;2023-08-12T18:25:28;8.18;;;4.30;;
4597;SDS011;62772;48.646;8.906;2023-08-12T18:30:29;8.25;;;4.63;;
4597;SDS011;62772;48.646;8.906;2023-08-12T18:35:30;8.85;;;4.47;;
4597;SDS011;62772;48.646;8.906;2023-08-12T18:40:30;7.53;;;4.38;;
4597;SDS011;62772;48.646;8.906;2023-08-12T18:45:33;6.72;;;3.85;;
4597;SDS011;62772;48.646;8.906;2023-08-12T18:50:34;6.90;;;4.25;;
4597;SDS011;62772;48.646;8.906;2023-08-12T18:55:35;8.02;;;4.05;;
4597;SDS011;62772;48.646;8.906;2023-08-12T19:00:35;6.25;;;3.85;;
4597;SDS011;62772;48.646;8.906;2023-08-12T19:05:36;6.57;;;3.90;;
4597;SDS011;62772;48.646;8.906;2023-08-12T19:10:37;7.47;;;4.63;;
4597;SDS011;62772;48.646;8.906;2023-08-12T19:15:42;9.85;;;4.57;;
4597;SDS011;62772;48.646;8.906;2023-08-12T19:20:43;7.35;;;4.68;;
4597;SDS011;62772;48.646;8.906;2023-08-12T19:25:44;9.43;;;4.97;;
4597;SDS011;62772;48.646;8.906;2023-08-12T19:30:47;8.60;;;4.90;;
4597;SDS011;62772;48.646;8.906;2023-08-12T19:35:49;9.07;;;4.60;;
4597;SDS011;62772;48.646;8.906;2023-08-12T19:40:50;6.18;;;4.43;;
4597;SDS011;62772;48.646;8.906;2023-08-12T19:45:52;9.30;;;4.93;;
4597;SDS011;62772;48.646;8.906;2023-08-12T19:50:52;6.20;;;4.30;;
4597;SDS011;62772;48.646;8.906;2023-08-12T19:55:54;7.85;;;4.88;;
4597;SDS011;62772;48.646;8.906;2023-08-12T20:00:55;8.87;;;4.70;;
4597;SDS011;62772;48.646;8.906;2023-08-12T20:05:56;5.40;;;3.78;;
4597;SDS011;62772;48.646;8.906;2023-08-12T20:10:57;5.95;;;3.47;;
4597;SDS011;62772;48.646;8.906;2023-08-12T20:15:57;7.10;;;4.55;;
4597;SDS011;62772;48.646;8.906;2023-08-12T20:21:00;8.45;;;4.78;;
4597;SDS011;62772;48.646;8.906;2023-08-12T20:26:01;7.53;;;4.25;;
4597;SDS011;62772;48.646;8.906;2023-08-12T20:31:02;9.97;;;4.77;;
4597;SDS011;62772;48.646;8.906;2023-08-12T20:36:03;11.88;;;4.40;;
4597;SDS011;62772;48.646;8.906;2023-08-12T20:41:22;8.57;;;4.47;;
4597;SDS011;62772;48.646;8.906;2023-08-12T20:46:43;8.02;;;3.75;;
4597;SDS011;62772;48.646;8.906;2023-08-12T20:52:04;6.10;;;3.30;;
4597;SDS011;62772;48.646;8.906;2023-08-12T20:57:25;5.47;;;3.47;;
4597;SDS011;62772;48.646;8.906;2023-08-12T21:02:46;8.67;;;3.90;;
4597;SDS011;62772;48.646;8.906;2023-08-12T21:08:07;11.48;;;5.75;;
4597;SDS011;62772;48.646;8.906;2023-08-12T21:13:28;10.17;;;4.17;;
4597;SDS011;62772;48.646;8.906;2023-08-12T21:18:49;7.10;;;4.80;;
4597;SDS011;62772;48.646;8.906;2023-08-12T21:24:09;8.93;;;5.00;;
4597;SDS011;62772;48.646;8.906;2023-08-12T21:29:30;7.20;;;4.07;;
4597;SDS011;62772;48.646;8.906;2023-08-12T21:34:51;9.33;;;4.83;;
4597;SDS011;62772;48.646;8.906;2023-08-12T21:40:12;7.17;;;3.83;;
4597;SDS011;62772;48.646;8.906;2023-08-12T21:45:32;9.20;;;5.10;;
4597;SDS011;62772;48.646;8.906;2023-08-12T21:50:53;9.87;;;4.97;;
4597;SDS011;62772;48.646;8.906;2023-08-12T21:56:15;7.53;;;4.93;;
4597;SDS011;62772;48.646;8.906;2023-08-12T22:01:35;7.87;;;5.20;;
4597;SDS011;62772;48.646;8.906;2023-08-12T22:06:36;8.10;;;5.20;;
4597;SDS011;62772;48.646;8.906;2023-08-12T22:11:37;10.47;;;4.63;;
4597;SDS011;62772;48.646;8.906;2023-08-12T22:16:37;8.17;;;5.40;;
4597;SDS011;62772;48.646;8.906;2023-08-12T22:21:38;6.50;;;4.63;;
4597;SDS011;62772;48.646;8.906;2023-08-12T22:26:38;8.30;;;5.13;;
4597;SDS011;62772;48.646;8.906;2023-08-12T22:31:39;9.00;;;5.73;;
4597;SDS011;62772;48.646;8.906;2023-08-12T22:36:40;7.77;;;5.30;;
4597;SDS011;62772;48.646;8.906;2023-08-12T22:41:41;9.40;;;6.20;;
4597;SDS011;62772;48.646;8.906;2023-08-12T22:46:41;7.50;;;5.17;;
4597;SDS011;62772;48.646;8.906;2023-08-12T22:51:42;14.73;;;6.57;;
4597;SDS011;62772;48.646;8.906;2023-08-12T22:56:42;13.80;;;6.67;;
4597;SDS011;62772;48.646;8.906;2023-08-12T23:01:43;16.37;;;8.10;;
4597;SDS011;62772;48.646;8.906;2023-08-12T23:06:43;10.20;;;6.17;;
4597;SDS011;62772;48.646;8.906;2023-08-12T23:11:44;9.60;;;6.03;;
4597;SDS011;62772;48.646;8.906;2023-08-12T23:16:44;10.40;;;6.80;;
4597;SDS011;62772;48.646;8.906;2023-08-12T23:21:45;9.30;;;6.47;;
4597;SDS011;62772;48.646;8.906;2023-08-12T23:26:45;8.80;;;5.90;;
4597;SDS011;62772;48.646;8.906;2023-08-12T23:31:46;10.83;;;6.87;;
4597;SDS011;62772;48.646;8.906;2023-08-12T23:36:46;8.73;;;5.87;;
4597;SDS011;62772;48.646;8.906;2023-08-12T23:41:47;12.60;;;7.23;;
4597;SDS011;62772;48.646;8.906;2023-08-12T23:46:47;11.20;;;7.60;;
4597;SDS011;62772;48.646;8.906;2023-08-12T23:51:49;20.77;;;7.80;;
4597;SDS011;62772;48.646;8.906;2023-08-12T23:56:49;10.37;;;6.90;;
